createdAt,value
2018-11-14T00:01:09.468Z,23.00
2018-11-14T00:02:40.987Z,21.30
2018-11-14T00:04:12.565Z,22.10
2018-11-14T00:07:15.722Z,25.10
2018-11-14T00:08:47.306Z,23.10
2018-11-14T00:10:19.404Z,21.00
2018-11-14T00:11:50.463Z,19.70
2018-11-14T00:13:22.133Z,22.50
2018-11-14T00:14:53.614Z,18.80
2018-11-14T00:16:25.198Z,20.70
2018-11-14T00:17:56.780Z,21.10
2018-11-14T00:19:28.491Z,20.00
2018-11-14T00:21:00.260Z,20.50
2018-11-14T00:22:31.518Z,21.00
2018-11-14T00:24:03.089Z,23.70
2018-11-14T00:25:34.654Z,18.50
2018-11-14T00:27:07.192Z,19.90
2018-11-14T00:28:37.812Z,21.00
2018-11-14T00:30:09.387Z,17.90
2018-11-14T00:31:41.596Z,17.90
2018-11-14T00:33:12.580Z,20.10
2018-11-14T00:34:44.241Z,18.90
2018-11-14T00:36:15.703Z,17.00
2018-11-14T00:37:47.375Z,19.40
2018-11-14T00:39:18.859Z,19.30
2018-11-14T00:40:50.435Z,17.70
2018-11-14T00:42:22.010Z,17.80
2018-11-14T00:43:53.588Z,17.80
2018-11-14T00:45:25.166Z,16.00
2018-11-14T00:46:56.744Z,17.50
2018-11-14T00:48:28.322Z,17.80
2018-11-14T00:50:00.101Z,16.20
2018-11-14T00:51:31.478Z,23.30
2018-11-14T00:53:03.060Z,19.50
2018-11-14T00:54:34.633Z,17.20
2018-11-14T00:56:06.312Z,18.40
2018-11-14T00:57:37.793Z,19.90
2018-11-14T00:59:09.368Z,20.10
2018-11-14T01:00:40.947Z,19.50
2018-11-14T01:02:12.525Z,21.80
2018-11-14T01:03:44.308Z,18.50
2018-11-14T01:05:15.986Z,20.10
2018-11-14T01:06:47.256Z,16.60
2018-11-14T01:08:18.935Z,21.00
2018-11-14T01:09:50.412Z,18.30
2018-11-14T01:11:21.990Z,17.70
2018-11-14T01:14:25.146Z,18.60
2018-11-14T01:15:56.727Z,16.10
2018-11-14T01:17:28.361Z,17.40
2018-11-14T01:18:59.894Z,18.30
2018-11-14T01:20:31.508Z,21.10
2018-11-14T01:22:03.039Z,16.70
2018-11-14T01:23:34.612Z,17.30
2018-11-14T01:25:06.190Z,18.60
2018-11-14T01:26:38.006Z,16.40
2018-11-14T01:28:09.407Z,18.10
2018-11-14T01:29:40.930Z,16.80
2018-11-14T01:31:12.505Z,19.00
2018-11-14T01:32:44.078Z,15.80
2018-11-14T01:34:15.665Z,18.60
2018-11-14T01:35:47.339Z,17.00
2018-11-14T01:37:19.493Z,18.20
2018-11-14T01:38:50.589Z,18.30
2018-11-14T01:40:21.967Z,19.70
2018-11-14T01:41:53.543Z,20.10
2018-11-14T01:43:25.135Z,21.50
2018-11-14T01:44:57.006Z,20.60
2018-11-14T01:46:28.274Z,23.00
2018-11-14T01:48:00.062Z,25.50
2018-11-14T01:49:31.433Z,23.20
2018-11-14T01:51:03.033Z,23.70
2018-11-14T01:52:34.600Z,23.90
2018-11-14T01:54:06.211Z,20.10
2018-11-14T01:55:37.764Z,23.00
2018-11-14T01:57:09.460Z,22.90
2018-11-14T01:58:40.931Z,22.80
2018-11-14T02:00:12.488Z,24.90
2018-11-14T02:01:44.069Z,23.70
2018-11-14T02:03:15.744Z,21.50
2018-11-14T02:04:47.519Z,22.80
2018-11-14T02:06:18.799Z,25.30
2018-11-14T02:07:50.373Z,23.00
2018-11-14T02:09:21.956Z,26.10
2018-11-14T02:10:53.642Z,27.30
2018-11-14T02:12:25.088Z,25.70
2018-11-14T02:13:56.654Z,24.10
2018-11-14T02:15:28.251Z,26.40
2018-11-14T02:16:59.811Z,23.60
2018-11-14T02:18:31.385Z,28.60
2018-11-14T02:20:02.965Z,24.50
2018-11-14T02:21:34.641Z,26.90
2018-11-14T02:23:06.116Z,28.70
2018-11-14T02:24:37.694Z,31.30
2018-11-14T02:26:09.268Z,31.00
2018-11-14T02:27:41.153Z,29.30
2018-11-14T02:29:12.434Z,37.10
2018-11-14T02:30:44.333Z,32.90
2018-11-14T02:32:15.596Z,37.80
2018-11-14T02:33:47.251Z,33.50
2018-11-14T02:35:18.731Z,37.30
2018-11-14T02:36:50.412Z,40.50
2018-11-14T02:38:21.881Z,36.90
2018-11-14T02:39:53.590Z,33.50
2018-11-14T02:41:25.048Z,36.30
2018-11-14T02:42:56.764Z,33.50
2018-11-14T02:44:28.187Z,33.60
2018-11-14T02:45:59.772Z,34.70
2018-11-14T02:47:31.394Z,34.80
2018-11-14T02:49:02.926Z,33.80
2018-11-14T02:50:34.507Z,29.90
2018-11-14T02:52:06.081Z,31.80
2018-11-14T02:53:37.653Z,26.30
2018-11-14T02:55:09.238Z,23.60
2018-11-14T02:56:40.825Z,24.10
2018-11-14T02:58:12.619Z,26.60
2018-11-14T02:59:43.985Z,25.90
2018-11-14T03:01:15.617Z,24.80
2018-11-14T03:02:47.159Z,25.20
2018-11-14T03:04:18.726Z,23.40
2018-11-14T03:05:50.445Z,25.20
2018-11-14T03:07:21.885Z,27.00
2018-11-14T03:08:53.465Z,27.70
2018-11-14T03:10:25.047Z,26.50
2018-11-14T03:11:56.629Z,28.60
2018-11-14T03:13:28.179Z,31.60
2018-11-14T03:14:59.764Z,35.00
2018-11-14T03:16:31.446Z,34.40
2018-11-14T03:18:02.948Z,38.40
2018-11-14T03:19:34.464Z,37.80
2018-11-14T03:21:06.045Z,38.70
2018-11-14T03:22:37.615Z,39.30
2018-11-14T03:24:09.213Z,38.60
2018-11-14T03:27:12.356Z,29.90
2018-11-14T03:28:44.019Z,27.00
2018-11-14T03:30:15.503Z,29.60
2018-11-14T03:31:47.091Z,28.00
2018-11-14T03:33:18.653Z,27.10
2018-11-14T03:34:50.631Z,26.00
2018-11-14T03:36:21.825Z,29.90
2018-11-14T03:37:53.373Z,27.70
2018-11-14T03:39:24.951Z,23.60
2018-11-14T03:40:56.531Z,22.90
2018-11-14T03:42:28.123Z,20.80
2018-11-14T03:43:59.706Z,23.10
2018-11-14T03:45:31.282Z,20.80
2018-11-14T03:47:02.940Z,21.00
2018-11-14T03:48:34.424Z,21.40
2018-11-14T03:50:05.991Z,21.20
2018-11-14T03:51:37.576Z,19.70
2018-11-14T03:53:09.230Z,20.00
2018-11-14T03:54:40.707Z,18.40
2018-11-14T03:56:12.283Z,16.90
2018-11-14T03:57:43.859Z,15.30
2018-11-14T03:59:15.536Z,20.30
2018-11-14T04:00:47.012Z,17.30
2018-11-14T04:02:18.598Z,22.50
2018-11-14T04:03:50.164Z,23.60
2018-11-14T04:05:21.900Z,19.10
2018-11-14T04:06:53.317Z,15.40
2018-11-14T04:08:24.893Z,17.00
2018-11-14T04:09:56.470Z,18.10
2018-11-14T04:11:28.271Z,17.40
2018-11-14T04:12:59.622Z,16.40
2018-11-14T04:14:31.202Z,16.00
2018-11-14T04:16:02.776Z,17.50
2018-11-14T04:17:34.393Z,15.30
2018-11-14T04:19:05.927Z,14.00
2018-11-14T04:20:37.504Z,17.70
2018-11-14T04:22:09.090Z,13.00
2018-11-14T04:23:40.757Z,14.20
2018-11-14T04:25:12.260Z,13.90
2018-11-14T04:26:43.808Z,14.10
2018-11-14T04:28:15.386Z,13.80
2018-11-14T04:29:47.211Z,14.20
2018-11-14T04:31:18.615Z,10.70
2018-11-14T04:32:50.124Z,10.80
2018-11-14T04:34:21.703Z,13.20
2018-11-14T04:35:53.266Z,9.10
2018-11-14T04:37:24.841Z,12.30
2018-11-14T04:38:56.646Z,10.60
2018-11-14T04:40:27.997Z,12.00
2018-11-14T04:41:59.574Z,12.20
2018-11-14T04:43:31.178Z,14.80
2018-11-14T04:45:02.722Z,13.00
2018-11-14T04:46:34.298Z,12.40
2018-11-14T04:48:06.098Z,11.30
2018-11-14T04:49:37.456Z,11.20
2018-11-14T04:51:09.028Z,13.10
2018-11-14T04:52:40.605Z,10.60
2018-11-14T04:54:12.284Z,12.20
2018-11-14T04:55:43.758Z,11.00
2018-11-14T04:57:20.487Z,10.30
2018-11-14T04:58:46.908Z,9.30
2018-11-14T05:00:18.584Z,13.70
2018-11-14T05:01:50.066Z,9.00
2018-11-14T05:03:21.637Z,11.10
2018-11-14T05:04:53.944Z,9.70
2018-11-14T05:06:24.989Z,9.00
2018-11-14T05:07:56.386Z,10.10
2018-11-14T05:09:27.949Z,9.20
2018-11-14T05:10:59.517Z,11.80
2018-11-14T05:12:31.193Z,8.80
2018-11-14T05:14:02.671Z,8.80
2018-11-14T05:15:34.278Z,10.00
2018-11-14T05:17:05.824Z,9.50
2018-11-14T05:18:37.398Z,10.30
2018-11-14T05:20:08.980Z,9.50
2018-11-14T05:21:40.750Z,11.10
2018-11-14T05:23:12.125Z,10.10
2018-11-14T05:24:44.075Z,10.70
2018-11-14T05:26:15.281Z,8.20
2018-11-14T05:27:46.853Z,10.20
2018-11-14T05:29:18.429Z,9.70
2018-11-14T05:30:50.105Z,9.70
2018-11-14T05:32:21.587Z,9.90
2018-11-14T05:33:53.159Z,11.00
2018-11-14T05:35:24.731Z,10.50
2018-11-14T05:36:56.341Z,9.80
2018-11-14T05:38:27.886Z,9.80
2018-11-14T05:39:59.480Z,9.30
2018-11-14T05:41:31.034Z,9.60
2018-11-14T05:43:02.710Z,11.40
2018-11-14T05:44:34.193Z,8.00
2018-11-14T05:46:05.762Z,7.90
2018-11-14T05:47:37.337Z,7.60
2018-11-14T05:49:08.914Z,8.20
2018-11-14T05:50:40.488Z,9.40
2018-11-14T05:52:12.066Z,8.80
2018-11-14T05:55:15.317Z,8.30
2018-11-14T05:56:46.820Z,8.60
2018-11-14T05:58:18.366Z,7.70
2018-11-14T05:59:49.944Z,7.00
2018-11-14T06:01:21.722Z,8.60
2018-11-14T06:04:24.672Z,7.60
2018-11-14T06:05:56.269Z,8.40
2018-11-14T06:07:27.890Z,7.70
2018-11-14T06:08:59.397Z,11.70
2018-11-14T06:10:30.977Z,7.70
2018-11-14T06:12:02.547Z,7.80
2018-11-14T06:13:34.122Z,7.90
2018-11-14T06:15:05.726Z,9.30
2018-11-14T06:16:37.273Z,7.20
2018-11-14T06:18:08.850Z,8.00
2018-11-14T06:19:40.832Z,9.00
2018-11-14T06:21:12.000Z,8.50
2018-11-14T06:22:43.576Z,8.70
2018-11-14T06:24:15.151Z,8.60
2018-11-14T06:25:46.827Z,8.10
2018-11-14T06:27:18.302Z,7.80
2018-11-14T06:30:21.454Z,7.60
2018-11-14T06:31:53.129Z,7.60
2018-11-14T06:33:24.605Z,9.00
2018-11-14T06:34:56.180Z,8.00
2018-11-14T06:36:27.755Z,7.10
2018-11-14T06:37:59.432Z,8.80
2018-11-14T06:39:30.907Z,8.40
2018-11-14T06:41:02.488Z,10.10
2018-11-14T06:42:34.059Z,8.00
2018-11-14T06:44:05.639Z,8.20
2018-11-14T06:45:37.209Z,8.70
2018-11-14T06:47:08.784Z,9.00
2018-11-14T06:48:40.360Z,8.80
2018-11-14T06:50:11.985Z,10.20
2018-11-14T06:51:43.815Z,8.10
2018-11-14T06:53:15.105Z,7.90
2018-11-14T06:54:46.662Z,8.80
2018-11-14T06:56:18.441Z,9.20
2018-11-14T06:57:49.812Z,8.90
2018-11-14T06:59:21.534Z,8.20
2018-11-14T07:00:52.964Z,9.20
2018-11-14T07:02:27.320Z,7.60
2018-11-14T07:03:56.117Z,8.80
2018-11-14T07:05:27.778Z,8.50
2018-11-14T07:06:59.264Z,8.40
2018-11-14T07:08:30.940Z,11.70
2018-11-14T07:10:02.416Z,9.80
2018-11-14T07:11:33.992Z,11.50
2018-11-14T07:13:05.565Z,9.30
2018-11-14T07:14:37.692Z,8.80
2018-11-14T07:16:08.716Z,8.90
2018-11-14T07:17:40.294Z,8.90
2018-11-14T07:19:11.870Z,8.80
2018-11-14T07:20:43.443Z,9.60
2018-11-14T07:22:15.018Z,9.20
2018-11-14T07:23:46.626Z,9.00
2018-11-14T07:25:18.180Z,9.60
2018-11-14T07:26:49.845Z,9.60
2018-11-14T07:28:21.342Z,10.40
2018-11-14T07:29:52.895Z,10.30
2018-11-14T07:31:24.470Z,8.90
2018-11-14T07:32:56.253Z,9.50
2018-11-14T07:34:27.622Z,13.60
2018-11-14T07:35:59.198Z,10.00
2018-11-14T07:37:30.779Z,9.80
2018-11-14T07:39:02.447Z,10.20
2018-11-14T07:40:33.923Z,10.50
2018-11-14T07:42:05.498Z,12.60
2018-11-14T07:43:37.180Z,10.40
2018-11-14T07:45:08.749Z,11.50
2018-11-14T07:46:40.224Z,11.10
2018-11-14T07:48:11.801Z,12.60
2018-11-14T07:49:43.579Z,10.60
2018-11-14T07:51:15.052Z,11.00
2018-11-14T07:52:46.527Z,10.20
2018-11-14T07:54:18.102Z,13.40
2018-11-14T07:55:49.677Z,13.50
2018-11-14T07:57:21.354Z,13.50
2018-11-14T08:00:24.408Z,12.90
2018-11-14T08:01:55.990Z,14.50
2018-11-14T08:03:27.693Z,12.10
2018-11-14T08:04:59.129Z,11.80
2018-11-14T08:06:30.709Z,12.70
2018-11-14T08:08:02.375Z,14.10
2018-11-14T08:09:34.012Z,12.50
2018-11-14T08:11:05.444Z,13.50
2018-11-14T08:12:38.308Z,13.70
2018-11-14T08:14:08.582Z,13.70
2018-11-14T08:15:40.195Z,14.40
2018-11-14T08:17:11.733Z,14.20
2018-11-14T08:18:43.344Z,13.60
2018-11-14T08:20:14.883Z,12.40
2018-11-14T08:23:18.034Z,11.20
2018-11-14T08:24:49.656Z,12.30
2018-11-14T08:26:21.184Z,11.70
2018-11-14T08:27:52.760Z,17.30
2018-11-14T08:29:24.535Z,13.10
2018-11-14T08:30:55.913Z,12.70
2018-11-14T08:32:27.490Z,15.40
2018-11-14T08:33:59.060Z,15.30
2018-11-14T08:35:30.736Z,13.50
2018-11-14T08:37:02.211Z,15.70
2018-11-14T08:38:33.791Z,21.60
2018-11-14T08:40:05.361Z,28.70
2018-11-14T08:41:36.936Z,65.90
2018-11-14T08:43:08.542Z,66.90
2018-11-14T08:44:40.091Z,42.60
2018-11-14T08:46:11.679Z,24.50
2018-11-14T08:47:43.338Z,13.80
2018-11-14T08:49:14.814Z,13.50
2018-11-14T08:50:46.391Z,13.40
2018-11-14T08:52:17.966Z,12.80
2018-11-14T08:53:49.849Z,14.30
2018-11-14T08:55:21.119Z,14.40
2018-11-14T08:56:52.697Z,14.50
2018-11-14T08:58:24.272Z,13.00
2018-11-14T09:01:27.539Z,13.90
2018-11-14T09:02:59.142Z,14.00
2018-11-14T09:04:31.208Z,14.90
2018-11-14T09:06:02.262Z,12.40
2018-11-14T09:07:34.029Z,15.70
2018-11-14T09:09:05.413Z,14.80
2018-11-14T09:10:37.122Z,12.40
2018-11-14T09:12:08.631Z,12.10
2018-11-14T09:13:40.103Z,11.00
2018-11-14T09:15:11.811Z,9.90
2018-11-14T09:16:43.420Z,10.70
2018-11-14T09:18:15.203Z,12.60
2018-11-14T09:19:46.417Z,11.90
2018-11-14T09:21:18.455Z,12.40
2018-11-14T09:22:49.616Z,15.90
2018-11-14T09:25:52.843Z,10.80
2018-11-14T09:27:24.443Z,14.10
2018-11-14T09:28:56.054Z,12.90
2018-11-14T09:30:27.682Z,12.80
2018-11-14T09:31:59.214Z,12.50
2018-11-14T09:33:30.666Z,10.40
2018-11-14T09:35:02.310Z,12.20
2018-11-14T09:36:34.122Z,10.10
2018-11-14T09:38:05.551Z,10.00
2018-11-14T09:39:36.893Z,12.80
2018-11-14T09:41:08.535Z,15.90
2018-11-14T09:42:40.009Z,14.60
2018-11-14T09:44:12.185Z,11.70
2018-11-14T09:45:43.256Z,11.20
2018-11-14T09:47:15.025Z,13.90
2018-11-14T09:48:46.909Z,13.40
2018-11-14T09:50:18.752Z,11.10
2018-11-14T09:51:49.800Z,13.70
2018-11-14T09:54:54.910Z,12.20
2018-11-14T09:56:26.420Z,10.80
2018-11-14T09:57:56.990Z,11.20
2018-11-14T09:59:28.071Z,11.40
2018-11-14T10:01:00.359Z,13.00
2018-11-14T10:02:32.085Z,15.00
2018-11-14T10:04:03.644Z,12.30
2018-11-14T10:05:35.535Z,10.30
2018-11-14T10:07:07.161Z,11.40
2018-11-14T10:08:39.230Z,10.70
2018-11-14T10:10:09.887Z,10.70
2018-11-14T10:11:40.815Z,11.30
2018-11-14T10:14:45.389Z,11.50
2018-11-14T10:16:16.757Z,10.50
2018-11-14T10:17:48.132Z,9.30
2018-11-14T10:19:19.560Z,9.20
2018-11-14T10:20:52.841Z,12.20
2018-11-14T10:22:23.104Z,9.00
2018-11-14T10:23:54.500Z,8.60
2018-11-14T10:25:26.072Z,10.90
2018-11-14T10:26:57.309Z,9.60
2018-11-14T10:28:28.826Z,8.80
2018-11-14T10:30:00.388Z,8.30
2018-11-14T10:31:31.314Z,8.90
2018-11-14T10:33:03.306Z,7.50
2018-11-14T10:34:34.825Z,7.80
2018-11-14T10:36:06.738Z,8.70
2018-11-14T10:37:38.394Z,7.90
2018-11-14T10:39:09.561Z,7.30
2018-11-14T10:40:41.498Z,7.50
2018-11-14T10:42:13.546Z,9.10
2018-11-14T10:43:45.805Z,8.10
2018-11-14T10:45:17.152Z,7.30
2018-11-14T10:46:47.899Z,8.10
2018-11-14T10:48:20.188Z,7.90
2018-11-14T10:49:50.642Z,8.10
2018-11-14T10:51:23.663Z,6.10
2018-11-14T10:52:54.196Z,5.80
2018-11-14T10:54:25.803Z,6.20
2018-11-14T10:57:28.992Z,5.70
2018-11-14T10:58:59.547Z,5.60
2018-11-14T11:00:30.821Z,6.30
2018-11-14T11:02:02.450Z,5.70
2018-11-14T11:03:34.412Z,6.50
2018-11-14T11:05:06.166Z,5.70
2018-11-14T11:06:37.031Z,6.70
2018-11-14T11:08:08.734Z,5.90
2018-11-14T11:09:40.339Z,6.80
2018-11-14T11:11:11.765Z,5.50
2018-11-14T11:12:43.401Z,5.90
2018-11-14T11:14:15.525Z,5.80
2018-11-14T11:17:18.066Z,6.20
2018-11-14T11:18:50.076Z,6.50
2018-11-14T11:20:21.130Z,6.30
2018-11-14T11:21:52.731Z,5.50
2018-11-14T11:23:24.392Z,6.10
2018-11-14T11:24:56.115Z,6.20
2018-11-14T11:26:50.554Z,7.00
2018-11-14T11:28:22.266Z,6.80
2018-11-14T11:29:53.719Z,6.20
2018-11-14T11:31:25.609Z,7.20
2018-11-14T11:32:57.262Z,6.70
2018-11-14T11:36:01.315Z,6.50
2018-11-14T11:37:31.986Z,5.70
2018-11-14T11:39:03.754Z,7.20
2018-11-14T11:40:34.865Z,5.80
2018-11-14T11:42:06.684Z,6.10
2018-11-14T11:43:38.026Z,7.50
2018-11-14T11:45:10.069Z,5.60
2018-11-14T11:46:41.802Z,5.00
2018-11-14T11:48:13.023Z,5.60
2018-11-14T11:49:44.338Z,4.90
2018-11-14T11:51:16.090Z,4.00
2018-11-14T11:52:47.777Z,2.60
2018-11-14T11:54:19.160Z,4.30
2018-11-14T11:55:50.849Z,2.60
2018-11-14T11:57:22.279Z,2.40
2018-11-14T12:00:25.555Z,2.10
2018-11-14T12:01:56.979Z,2.00
2018-11-14T12:03:28.561Z,2.20
2018-11-14T12:08:03.316Z,2.20
2018-11-14T12:09:35.214Z,2.20
2018-11-14T12:11:06.480Z,2.10
2018-11-14T12:12:38.115Z,2.40
2018-11-14T12:14:09.859Z,2.40
2018-11-14T12:15:42.718Z,4.80
2018-11-14T12:18:45.873Z,2.10
2018-11-14T12:20:16.613Z,2.30
2018-11-14T12:21:48.803Z,2.30
2018-11-14T12:23:20.599Z,2.30
2018-11-14T12:26:23.308Z,2.20
2018-11-14T12:27:56.206Z,2.00
2018-11-14T12:29:26.729Z,2.20
2018-11-14T12:30:59.977Z,2.50
2018-11-14T12:32:30.577Z,2.70
2018-11-14T12:34:01.374Z,2.00
2018-11-14T12:35:32.662Z,2.20
2018-11-14T12:37:04.826Z,8.10
2018-11-14T12:38:38.885Z,2.30
2018-11-14T12:40:07.689Z,2.00
2018-11-14T12:41:41.047Z,2.00
2018-11-14T12:43:11.169Z,3.00
2018-11-14T12:44:44.074Z,1.70
2018-11-14T12:46:14.100Z,1.90
2018-11-14T12:47:45.881Z,4.00
2018-11-14T12:49:18.505Z,2.10
2018-11-14T12:50:50.484Z,4.50
2018-11-14T12:52:20.423Z,2.20
2018-11-14T12:53:53.489Z,1.70
2018-11-14T12:55:23.145Z,1.80
2018-11-14T12:56:55.418Z,2.20
2018-11-14T12:58:30.251Z,3.20
2018-11-14T12:59:59.166Z,2.60
2018-11-14T13:01:29.515Z,2.00
2018-11-14T13:03:01.474Z,2.00
2018-11-14T13:04:33.079Z,3.00
2018-11-14T13:06:04.128Z,2.00
2018-11-14T13:07:35.626Z,2.20
2018-11-14T13:09:07.406Z,2.30
2018-11-14T13:10:39.214Z,2.40
2018-11-14T13:12:11.641Z,2.20
2018-11-14T13:13:43.722Z,2.10
2018-11-14T13:15:16.739Z,2.30
2018-11-14T13:16:46.362Z,2.10
2018-11-14T13:18:17.067Z,2.30
2018-11-14T13:19:49.202Z,2.00
2018-11-14T13:21:20.864Z,1.70
2018-11-14T13:22:52.648Z,1.90
2018-11-14T13:24:24.365Z,1.90
2018-11-14T13:25:55.335Z,1.90
2018-11-14T13:27:26.943Z,3.40
2018-11-14T13:28:58.707Z,2.00
2018-11-14T13:30:31.541Z,2.10
2018-11-14T13:32:03.185Z,2.20
2018-11-14T13:33:33.885Z,3.00
2018-11-14T13:35:06.498Z,2.70
2018-11-14T13:36:38.201Z,2.10
2018-11-14T13:38:09.783Z,2.00
2018-11-14T13:39:40.093Z,2.50
2018-11-14T13:41:12.788Z,2.10
2018-11-14T13:42:43.190Z,2.30
2018-11-14T13:44:15.219Z,2.00
2018-11-14T13:45:46.079Z,2.30
2018-11-14T13:47:17.379Z,1.90
2018-11-14T13:48:48.949Z,2.40
2018-11-14T13:50:21.413Z,2.30
2018-11-14T13:51:52.343Z,2.10
2018-11-14T13:53:24.500Z,2.00
2018-11-14T13:54:56.707Z,3.00
2018-11-14T13:56:27.416Z,2.00
2018-11-14T13:57:59.303Z,1.90
2018-11-14T13:59:31.697Z,2.40
2018-11-14T14:02:34.446Z,2.50
2018-11-14T14:04:05.748Z,3.00
2018-11-14T14:05:37.624Z,2.40
2018-11-14T14:07:07.990Z,2.50
2018-11-14T14:08:40.463Z,2.30
2018-11-14T14:10:11.473Z,2.40
2018-11-14T14:11:43.989Z,2.10
2018-11-14T14:13:15.328Z,2.10
2018-11-14T14:14:46.092Z,3.60
2018-11-14T14:16:17.762Z,2.70
2018-11-14T14:17:49.056Z,2.00
2018-11-14T14:19:20.798Z,2.00
2018-11-14T14:20:52.497Z,1.80
2018-11-14T14:22:24.084Z,1.60
2018-11-14T14:23:55.439Z,1.70
2018-11-14T14:25:26.979Z,1.70
2018-11-14T14:26:58.944Z,1.60
2018-11-14T14:28:30.178Z,2.00
2018-11-14T14:30:02.629Z,1.90
2018-11-14T14:31:33.085Z,2.00
2018-11-14T14:33:05.087Z,2.00
2018-11-14T14:34:36.505Z,1.70
2018-11-14T14:37:40.169Z,2.00
2018-11-14T14:39:12.068Z,2.30
2018-11-14T14:40:43.320Z,2.00
2018-11-14T14:43:45.306Z,2.10
2018-11-14T14:45:17.222Z,2.00
2018-11-14T14:46:48.675Z,1.80
2018-11-14T14:48:21.137Z,2.00
2018-11-14T14:49:52.817Z,2.30
2018-11-14T14:51:23.741Z,2.70
2018-11-14T14:52:54.992Z,1.60
2018-11-14T14:54:26.320Z,2.40
2018-11-14T14:55:57.980Z,2.70
2018-11-14T14:57:30.684Z,1.80
2018-11-14T14:59:04.412Z,2.20
2018-11-14T15:00:32.969Z,2.90
2018-11-14T15:02:04.851Z,2.60
2018-11-14T15:03:37.353Z,2.00
2018-11-14T15:05:08.661Z,2.00
2018-11-14T15:06:42.176Z,2.80
2018-11-14T15:08:12.957Z,2.00
2018-11-14T15:09:42.938Z,1.90
2018-11-14T15:11:14.643Z,2.00
2018-11-14T15:12:46.817Z,1.60
2018-11-14T15:14:17.594Z,1.50
2018-11-14T15:15:50.004Z,1.40
2018-11-14T15:20:23.295Z,2.40
2018-11-14T15:21:54.782Z,1.50
2018-11-14T15:23:26.372Z,2.40
2018-11-14T15:26:29.917Z,1.50
2018-11-14T15:28:01.652Z,1.70
2018-11-14T15:29:33.104Z,1.90
2018-11-14T15:31:04.626Z,1.60
2018-11-14T15:32:35.908Z,1.60
2018-11-14T15:34:07.799Z,2.00
2018-11-14T15:35:39.392Z,1.60
2018-11-14T15:37:11.039Z,2.00
2018-11-14T15:38:42.667Z,3.10
2018-11-14T15:40:14.153Z,2.00
2018-11-14T15:41:45.444Z,2.10
2018-11-14T15:43:17.331Z,1.80
2018-11-14T15:44:48.619Z,3.00
2018-11-14T15:46:20.221Z,1.70
2018-11-14T15:47:51.997Z,1.80
2018-11-14T15:49:25.146Z,2.70
2018-11-14T15:50:55.486Z,1.80
2018-11-14T15:52:28.374Z,1.50
2018-11-14T15:53:59.116Z,2.70
2018-11-14T15:55:30.709Z,1.50
2018-11-14T15:57:01.513Z,1.90
2018-11-14T15:58:33.456Z,1.80
2018-11-14T16:00:04.520Z,1.90
2018-11-14T16:01:36.151Z,1.90
2018-11-14T16:03:07.724Z,1.90
2018-11-14T16:04:39.288Z,1.90
2018-11-14T16:06:11.400Z,1.80
2018-11-14T16:07:42.475Z,2.10
2018-11-14T16:09:14.496Z,2.50
2018-11-14T16:10:45.644Z,2.20
2018-11-14T16:12:17.332Z,2.10
2018-11-14T16:13:48.880Z,1.80
2018-11-14T16:16:52.128Z,2.90
2018-11-14T16:18:23.621Z,2.50
2018-11-14T16:19:55.201Z,2.00
2018-11-14T16:21:27.495Z,1.80
2018-11-14T16:22:58.582Z,1.90
2018-11-14T16:24:29.978Z,2.90
2018-11-14T16:26:01.872Z,1.70
2018-11-14T16:29:04.743Z,1.50
2018-11-14T16:30:36.334Z,2.10
2018-11-14T16:32:08.229Z,1.90
2018-11-14T16:33:39.765Z,1.60
2018-11-14T16:35:11.209Z,2.40
2018-11-14T16:36:42.702Z,1.90
2018-11-14T16:41:17.474Z,2.30
2018-11-14T16:42:49.572Z,1.50
2018-11-14T16:44:20.669Z,1.70
2018-11-14T16:45:52.259Z,1.70
2018-11-14T16:48:55.428Z,1.70
2018-11-14T16:50:27.032Z,1.50
2018-11-14T16:51:59.248Z,2.80
2018-11-14T16:53:30.195Z,1.90
2018-11-14T16:56:33.472Z,2.60
2018-11-14T16:58:05.161Z,1.80
2018-11-14T16:59:36.548Z,6.40
2018-11-14T17:01:08.138Z,2.10
2018-11-14T17:02:39.727Z,3.60
2018-11-14T17:04:11.320Z,1.90
2018-11-14T17:05:43.072Z,2.00
2018-11-14T17:07:14.703Z,2.40
2018-11-14T17:08:46.188Z,3.90
2018-11-14T17:10:17.676Z,2.60
2018-11-14T17:14:52.638Z,2.40
2018-11-14T17:16:24.030Z,5.50
2018-11-14T17:17:55.819Z,2.30
2018-11-14T17:20:58.793Z,3.40
2018-11-14T17:22:30.378Z,2.90
2018-11-14T17:24:02.010Z,2.10
2018-11-14T17:25:33.589Z,4.60
2018-11-14T17:27:05.139Z,3.00
2018-11-14T17:28:36.990Z,2.50
2018-11-14T17:30:08.614Z,2.40
2018-11-14T17:33:12.534Z,3.00
2018-11-14T17:34:43.115Z,2.50
2018-11-14T17:36:14.656Z,2.10
2018-11-14T17:37:46.242Z,4.30
2018-11-14T17:40:49.415Z,2.70
2018-11-14T17:42:21.066Z,3.10
2018-11-14T17:43:52.588Z,1.70
2018-11-14T17:45:24.375Z,2.00
2018-11-14T17:46:55.758Z,1.70
2018-11-14T17:48:27.348Z,1.50
2018-11-14T17:49:58.930Z,1.70
2018-11-14T17:53:02.601Z,2.20
2018-11-14T17:54:33.681Z,1.40
2018-11-14T17:56:05.272Z,3.40
2018-11-14T17:57:37.052Z,2.90
2018-11-14T18:00:40.015Z,2.70
2018-11-14T18:02:11.599Z,2.70
2018-11-14T18:08:18.236Z,1.60
2018-11-14T18:09:49.524Z,1.90
2018-11-14T18:11:21.221Z,2.60
2018-11-14T18:12:52.885Z,1.50
2018-11-14T18:14:24.312Z,1.60
2018-11-14T18:15:55.898Z,1.70
2018-11-14T18:17:27.435Z,1.60
2018-11-14T18:18:59.019Z,3.70
2018-11-14T18:20:30.906Z,1.50
2018-11-14T18:22:02.335Z,1.90
2018-11-14T18:23:34.355Z,1.50
2018-11-14T18:25:05.565Z,4.00
2018-11-14T18:28:08.929Z,1.70
2018-11-14T18:29:40.976Z,2.60
2018-11-14T18:31:11.949Z,1.70
2018-11-14T18:32:43.493Z,2.50
2018-11-14T18:34:15.372Z,1.50
2018-11-14T18:35:46.897Z,1.40
2018-11-14T18:37:18.037Z,2.50
2018-11-14T18:38:49.925Z,1.70
2018-11-14T18:44:56.152Z,2.90
2018-11-14T18:46:27.725Z,2.60
2018-11-14T18:47:59.118Z,1.70
2018-11-14T18:49:30.701Z,2.00
2018-11-14T18:52:33.873Z,1.20
2018-11-14T18:54:05.455Z,1.70
2018-11-14T18:58:40.211Z,1.70
2018-11-14T19:00:11.794Z,1.40
2018-11-14T19:01:43.376Z,2.90
2018-11-14T19:03:14.972Z,1.40
2018-11-14T19:04:46.793Z,1.30
2018-11-14T19:09:21.295Z,2.70
2018-11-14T19:10:53.509Z,1.10
2018-11-14T19:15:27.629Z,2.60
2018-11-14T19:16:59.212Z,1.70
2018-11-14T19:18:31.123Z,1.40
2018-11-14T19:20:02.377Z,1.70
2018-11-14T19:23:05.644Z,1.50
2018-11-14T19:27:40.292Z,3.60
2018-11-14T19:29:12.381Z,1.60
2018-11-14T19:30:43.477Z,3.50
2018-11-14T19:32:15.116Z,1.50
2018-11-14T19:33:46.621Z,1.40
2018-11-14T19:35:18.507Z,3.40
2018-11-14T19:36:49.988Z,1.70
2018-11-14T19:38:21.367Z,2.50
2018-11-14T19:39:52.949Z,1.90
2018-11-14T19:41:24.631Z,1.70
2018-11-14T19:42:56.113Z,1.90
2018-11-14T19:44:27.999Z,2.00
2018-11-14T19:45:59.277Z,2.30
2018-11-14T19:47:31.065Z,4.00
2018-11-14T19:49:02.454Z,3.00
2018-11-14T19:50:34.559Z,2.40
2018-11-14T19:52:05.697Z,2.30
2018-11-14T19:53:38.167Z,2.80
2018-11-14T19:58:11.931Z,4.10
2018-11-14T19:59:44.245Z,2.60
2018-11-14T20:01:15.398Z,2.60
2018-11-14T20:04:18.256Z,3.40
2018-11-14T20:05:50.054Z,2.90
2018-11-14T20:07:21.580Z,3.10
2018-11-14T20:08:53.304Z,2.70
2018-11-14T20:13:27.742Z,3.00
2018-11-14T20:14:59.323Z,5.70
2018-11-14T20:18:02.485Z,2.40
2018-11-14T20:19:34.168Z,3.10
2018-11-14T20:22:37.227Z,3.00
2018-11-14T20:24:08.809Z,3.80
2018-11-14T20:25:40.399Z,2.90
2018-11-14T20:27:11.973Z,3.00
2018-11-14T20:28:43.551Z,2.70
2018-11-14T20:30:15.195Z,2.60
2018-11-14T20:31:46.746Z,2.60
2018-11-14T20:33:18.823Z,3.20
2018-11-14T20:34:50.088Z,2.80
2018-11-14T20:36:21.985Z,2.70
2018-11-14T20:39:24.717Z,2.50
2018-11-14T20:40:56.197Z,3.00
2018-11-14T20:42:28.283Z,4.00
2018-11-14T20:43:59.358Z,4.60
2018-11-14T20:47:02.518Z,3.40
2018-11-14T20:48:34.099Z,4.70
2018-11-14T20:51:37.260Z,4.20
2018-11-14T20:53:08.839Z,3.40
2018-11-14T20:54:40.420Z,3.40
2018-11-14T20:56:12.019Z,3.10
2018-11-14T20:57:43.581Z,3.10
2018-11-14T20:59:15.260Z,3.50
2018-11-14T21:00:46.741Z,3.40
2018-11-14T21:02:18.626Z,3.60
2018-11-14T21:05:21.581Z,3.50
2018-11-14T21:06:53.060Z,3.60
2018-11-14T21:08:24.641Z,5.30
2018-11-14T21:09:56.223Z,3.40
2018-11-14T21:11:27.800Z,3.40
2018-11-14T21:12:59.582Z,4.10
2018-11-14T21:16:02.779Z,3.70
2018-11-14T21:17:34.219Z,4.30
2018-11-14T21:19:05.900Z,3.70
2018-11-14T21:20:37.276Z,3.80
2018-11-14T21:22:09.057Z,3.50
2018-11-14T21:25:12.015Z,3.70
2018-11-14T21:26:43.593Z,3.10
2018-11-14T21:28:15.174Z,4.40
2018-11-14T21:29:47.287Z,3.80
2018-11-14T21:31:18.432Z,3.60
2018-11-14T21:32:49.911Z,4.50
2018-11-14T21:34:21.492Z,2.50
2018-11-14T21:35:53.068Z,3.20
2018-11-14T21:37:24.950Z,3.00
2018-11-14T21:38:56.231Z,2.80
2018-11-14T21:40:27.806Z,2.90
2018-11-14T21:41:59.384Z,3.40
2018-11-14T21:43:31.034Z,3.70
2018-11-14T21:45:02.542Z,3.00
2018-11-14T21:46:34.120Z,3.40
2018-11-14T21:48:05.703Z,2.70
2018-11-14T21:49:37.279Z,3.70